Startpagina
METAR-TAF:

METAR-TAF

Vliegvelden :

Žilina, Slowakije

breedte: 49-14N, lengte: 018-36-49E, hoogte: 312 m

Actueel weer

Dit bericht is 38 minuten geleden gemaakt, om 00:00 UTC
Wind 10 kt uit het oostnoordoosten
Temperatuur -2°C
Vochtigheid 74%
Druk 1019 hPa
Zicht 10 km of meer
Geheel bewolkt op 2700 ft

METAR: LZZI 220000Z 07010KT 9999 OVC027 M02/M06 Q1019

Tijdstip: 01:38 (00:38 UTC)

Verwachting

Dit bericht is 1 uur en het 38 minuten geleden gemaakt, om 23:00 UTC
Verwachting geldig van 22 om 00 UTC tot 22 om 09 UTC
Wind 10 kt uit het noordoosten
Zicht 10 km of meer
Gebroken wolken op 3000 ft
Kans 30% :
Tijdelijke
van 22 om 00 UTC tot 22 om 03 UTC
Wind 2 kt uit variabele richting
Zicht: 5000 m
Gebroken wolken op 1200 ft
nevel
Wijzigt naar
van 22 om 06 UTC tot 22 om 08 UTC
Verspreide wolken op 4000 ft

TAF: LZZI 212300Z 2200/2209 05010KT 9999 BKN030 PROB30 TEMPO 2200/2203 VRB02KT 5000 BR BKN012 BECMG 2206/2208 SCT040

Waarnemingen en weersverwachtingen van meer dan 4000 vliegvelden (METAR en TAF).

De beschikbare stations zijn de gele en rode punten op de kaart.

Ga met uw muis naar het station om de naam te zien.

Klik dan om waarnemingen en weersverwachtingen te zien.

kaart wijzigen: klik op de groene knoppen met een zwart kruis om in te zoomen, op de groene knop met een streepje om uit te zoomen of op de groene pijlen voor aangrenzende kaarten.


METAR-TAF: